Time;durP1;ratioP1;P1;durP2;ratioP2;P2;SDS_P1;SDS_P2;PMS_P1;PMS_P2;Temp;Humidity;BMP_temperature;BMP_pressure;BME280_temperature;BME280_humidity;BME280_pressure;Samples;Min_cycle;Max_cycle;Signal;HPM_P1;HPM_P2
2022/11/05 00:10:23;;;;;;;5.10;1.67;;;;;;;;;;5098614;28;20724;-64
2022/11/05 00:18:35;;;;;;;1.90;1.70;;;;;;;;;;5074919;28;20195;-64
2022/11/05 00:21:03;;;;;;;1.70;1.50;;;;;;;;;;5092243;28;20244;-64
2022/11/05 00:26:16;;;;;;;2.70;1.53;;;;;;;;;;5098522;28;20232;-64
2022/11/05 00:28:44;;;;;;;2.97;1.70;;;;;;;;;;5098361;28;20268;-64
2022/11/05 00:31:12;;;;;;;1.90;1.80;;;;;;;;;;5098126;28;20683;-64
2022/11/05 00:33:42;;;;;;;2.33;1.80;;;;;;;;;;5098037;28;20226;-64
2022/11/05 00:36:11;;;;;;;4.57;1.70;;;;;;;;;;5097717;28;20255;-64
2022/11/05 00:38:38;;;;;;;1.63;1.50;;;;;;;;;;5097943;28;20284;-64
2022/11/05 00:41:06;;;;;;;2.87;1.50;;;;;;;;;;5098271;28;20245;-64
2022/11/05 00:46:19;;;;;;;2.67;1.40;;;;;;;;;;5098194;28;20237;-64
2022/11/05 00:51:33;;;;;;;2.50;1.70;;;;;;;;;;5097781;28;20209;-64
2022/11/05 00:54:01;;;;;;;3.20;1.93;;;;;;;;;;5097942;28;20226;-64
2022/11/05 00:56:29;;;;;;;3.23;1.63;;;;;;;;;;5097680;28;20229;-64
2022/11/05 00:58:57;;;;;;;1.93;1.77;;;;;;;;;;5097846;28;20225;-64
2022/11/05 01:01:25;;;;;;;2.83;1.57;;;;;;;;;;5097851;28;20237;-64
2022/11/05 01:03:54;;;;;;;1.83;1.30;;;;;;;;;;5097831;28;20228;-64
2022/11/05 01:06:22;;;;;;;3.13;1.77;;;;;;;;;;5097423;28;20209;-64
2022/11/05 01:08:49;;;;;;;4.03;1.90;;;;;;;;;;5097434;28;20303;-64
2022/11/05 01:14:00;;;;;;;2.07;1.60;;;;;;;;;;5097527;28;20233;-64
2022/11/05 01:16:28;;;;;;;2.27;1.60;;;;;;;;;;5097553;28;20206;-64
2022/11/05 01:18:57;;;;;;;2.07;1.70;;;;;;;;;;5096409;28;20233;-64
2022/11/05 01:21:25;;;;;;;2.30;1.63;;;;;;;;;;5097580;28;20205;-64
2022/11/05 01:23:53;;;;;;;2.67;1.77;;;;;;;;;;5094555;28;20248;-64
2022/11/05 01:26:20;;;;;;;3.87;1.87;;;;;;;;;;5096170;28;20233;-64
2022/11/05 01:28:50;;;;;;;1.70;1.60;;;;;;;;;;5097214;28;20256;-64
2022/11/05 01:31:18;;;;;;;2.00;1.73;;;;;;;;;;5097456;28;20745;-64
2022/11/05 01:33:45;;;;;;;2.57;1.50;;;;;;;;;;5097483;28;20268;-64
2022/11/05 01:36:14;;;;;;;2.63;1.70;;;;;;;;;;5099703;28;20647;-64
2022/11/05 01:38:42;;;;;;;2.23;1.80;;;;;;;;;;5101432;28;20202;-64
2022/11/05 01:41:10;;;;;;;2.70;1.70;;;;;;;;;;5101177;28;20241;-64
2022/11/05 01:43:45;;;;;;;1.93;1.60;;;;;;;;;;5101143;28;20229;-64
2022/11/05 01:46:13;;;;;;;2.27;1.50;;;;;;;;;;5101144;28;20240;-64
2022/11/05 01:48:41;;;;;;;3.37;1.73;;;;;;;;;;5101287;28;20747;-64
2022/11/05 01:51:10;;;;;;;3.23;1.60;;;;;;;;;;5101070;28;20237;-64
2022/11/05 01:53:43;;;;;;;3.23;2.00;;;;;;;;;;5100239;28;20565;-64
2022/11/05 01:56:13;;;;;;;4.30;1.83;;;;;;;;;;5100865;28;20321;-64
2022/11/05 01:58:42;;;;;;;3.03;1.70;;;;;;;;;;5100994;28;20645;-64
2022/11/05 02:01:10;;;;;;;5.87;2.00;;;;;;;;;;5101120;28;20205;-64
2022/11/05 02:03:38;;;;;;;1.60;1.43;;;;;;;;;;5101002;28;20229;-64
2022/11/05 02:06:08;;;;;;;2.10;1.50;;;;;;;;;;5100839;28;20248;-64
2022/11/05 02:08:48;;;;;;;4.77;1.50;;;;;;;;;;5100549;28;20710;-64
2022/11/05 02:11:18;;;;;;;2.37;1.60;;;;;;;;;;5101183;28;20250;-64
2022/11/05 02:13:46;;;;;;;4.60;1.73;;;;;;;;;;5100967;28;20221;-64
2022/11/05 02:16:18;;;;;;;2.87;1.90;;;;;;;;;;5100613;28;20580;-64
2022/11/05 02:18:51;;;;;;;5.80;2.10;;;;;;;;;;5100956;28;20201;-64
2022/11/05 02:21:33;;;;;;;3.80;1.87;;;;;;;;;;5100271;28;20248;-64
2022/11/05 02:24:15;;;;;;;2.03;1.40;;;;;;;;;;5099718;28;20264;-64
2022/11/05 02:26:51;;;;;;;4.00;1.87;;;;;;;;;;5100720;28;20236;-64
2022/11/05 02:29:37;;;;;;;1.70;1.60;;;;;;;;;;5100390;28;20244;-64
2022/11/05 02:32:11;;;;;;;2.50;1.60;;;;;;;;;;5100387;28;20233;-64
2022/11/05 02:34:45;;;;;;;2.73;1.93;;;;;;;;;;5100173;28;20257;-64
2022/11/05 02:37:14;;;;;;;2.67;1.90;;;;;;;;;;5100185;28;20300;-64
2022/11/05 02:39:46;;;;;;;1.53;1.40;;;;;;;;;;5087530;28;20721;-64
2022/11/05 02:42:19;;;;;;;4.90;1.50;;;;;;;;;;5100237;28;20267;-64
2022/11/05 02:44:49;;;;;;;4.70;1.80;;;;;;;;;;5100195;28;20256;-64
2022/11/05 02:47:23;;;;;;;1.37;1.27;;;;;;;;;;5099498;28;20209;-64
2022/11/05 02:49:54;;;;;;;1.43;1.33;;;;;;;;;;5099947;28;20315;-64
2022/11/05 02:52:25;;;;;;;4.17;1.57;;;;;;;;;;5098205;28;20256;-64
2022/11/05 02:54:56;;;;;;;2.03;1.30;;;;;;;;;;5097700;28;20747;-64
2022/11/05 02:57:26;;;;;;;1.73;1.40;;;;;;;;;;5099590;28;20320;-64
2022/11/05 03:00:00;;;;;;;2.93;1.37;;;;;;;;;;5100052;28;20271;-64
2022/11/05 03:02:29;;;;;;;2.67;1.53;;;;;;;;;;5100034;28;20655;-64
2022/11/05 03:04:57;;;;;;;1.50;1.40;;;;;;;;;;5099364;28;20430;-64
2022/11/05 03:07:30;;;;;;;1.93;1.50;;;;;;;;;;5098414;28;20615;-61
2022/11/05 03:10:09;;;;;;;3.10;1.50;;;;;;;;;;5096375;28;20361;-62
2022/11/05 03:12:42;;;;;;;2.57;1.60;;;;;;;;;;5098584;28;20576;-63
2022/11/05 03:15:15;;;;;;;2.47;1.50;;;;;;;;;;5099319;28;20230;-63
2022/11/05 03:17:52;;;;;;;2.57;1.90;;;;;;;;;;5098405;28;20213;-62
2022/11/05 03:20:21;;;;;;;2.87;1.60;;;;;;;;;;5096417;28;20213;-62
2022/11/05 03:22:51;;;;;;;2.73;1.60;;;;;;;;;;5099206;28;20245;-62
2022/11/05 03:25:21;;;;;;;1.40;1.40;;;;;;;;;;5099291;28;20258;-62
2022/11/05 03:27:52;;;;;;;2.00;1.50;;;;;;;;;;5099716;28;20289;-62
2022/11/05 03:30:20;;;;;;;2.00;1.80;;;;;;;;;;5098675;28;20681;-62
2022/11/05 03:32:51;;;;;;;2.20;1.90;;;;;;;;;;5098995;28;20209;-62
2022/11/05 03:35:22;;;;;;;3.77;2.17;;;;;;;;;;5097760;28;20256;-62
2022/11/05 03:37:56;;;;;;;3.20;2.10;;;;;;;;;;5097150;28;20606;-62
2022/11/05 03:40:24;;;;;;;2.43;1.63;;;;;;;;;;5094437;28;20276;-62
2022/11/05 03:42:54;;;;;;;2.63;1.90;;;;;;;;;;5086892;28;20232;-62
2022/11/05 03:45:23;;;;;;;2.77;2.13;;;;;;;;;;5098059;28;20268;-62
2022/11/05 03:47:55;;;;;;;2.97;2.43;;;;;;;;;;5098191;28;20205;-62
2022/11/05 03:50:25;;;;;;;1.80;1.70;;;;;;;;;;5097069;28;20304;-62
2022/11/05 03:52:55;;;;;;;2.67;1.60;;;;;;;;;;5097901;28;20198;-63
2022/11/05 03:55:26;;;;;;;1.97;1.50;;;;;;;;;;5097696;28;20245;-62
2022/11/05 03:57:55;;;;;;;1.80;1.70;;;;;;;;;;5098329;28;20696;-62
2022/11/05 04:00:25;;;;;;;3.03;2.70;;;;;;;;;;5096972;28;20261;-62
2022/11/05 04:02:54;;;;;;;3.93;2.43;;;;;;;;;;5098613;28;20288;-62
2022/11/05 04:05:22;;;;;;;3.07;1.60;;;;;;;;;;5097520;28;20227;-63
2022/11/05 04:13:26;;;;;;;2.10;1.90;;;;;;;;;;5096224;28;20259;-63
2022/11/05 04:18:41;;;;;;;2.10;1.90;;;;;;;;;;5096174;28;20240;-63
2022/11/05 04:24:09;;;;;;;2.10;1.90;;;;;;;;;;5085064;28;20305;-63
2022/11/05 04:26:37;;;;;;;2.20;1.93;;;;;;;;;;5096447;28;20209;-63
2022/11/05 04:31:50;;;;;;;2.80;2.00;;;;;;;;;;5097599;28;20205;-62
2022/11/05 04:34:20;;;;;;;1.87;1.70;;;;;;;;;;5097450;28;20281;-62
2022/11/05 04:36:48;;;;;;;3.10;1.73;;;;;;;;;;5097152;28;20201;-62
2022/11/05 04:39:17;;;;;;;3.03;1.60;;;;;;;;;;5097779;28;20197;-62
2022/11/05 04:41:46;;;;;;;2.30;2.10;;;;;;;;;;5096211;28;20265;-62
2022/11/05 04:44:14;;;;;;;4.13;1.90;;;;;;;;;;5097224;28;20229;-62
2022/11/05 04:46:42;;;;;;;3.83;2.90;;;;;;;;;;5097266;28;20228;-63
2022/11/05 04:49:10;;;;;;;3.17;2.87;;;;;;;;;;5095875;28;20241;-62
2022/11/05 04:51:39;;;;;;;2.20;2.00;;;;;;;;;;5096543;28;20228;-62
2022/11/05 04:54:06;;;;;;;4.97;2.47;;;;;;;;;;5096583;28;20312;-62
2022/11/05 04:56:34;;;;;;;4.03;2.00;;;;;;;;;;5095606;28;20749;-63
2022/11/05 04:59:02;;;;;;;4.50;2.10;;;;;;;;;;5097042;28;20269;-62
2022/11/05 05:01:29;;;;;;;3.60;2.10;;;;;;;;;;5097232;28;20244;-62
2022/11/05 05:03:57;;;;;;;2.27;1.80;;;;;;;;;;5097537;28;20588;-63
2022/11/05 05:06:25;;;;;;;1.80;1.70;;;;;;;;;;5096779;28;20288;-62
2022/11/05 05:08:56;;;;;;;3.10;2.13;;;;;;;;;;5091122;28;20281;-63
2022/11/05 05:11:24;;;;;;;2.30;1.87;;;;;;;;;;5099491;28;20213;-63
2022/11/05 05:13:52;;;;;;;2.17;1.77;;;;;;;;;;5102616;28;20779;-63
2022/11/05 05:16:21;;;;;;;2.03;1.53;;;;;;;;;;5102379;28;20576;-62
2022/11/05 05:18:49;;;;;;;2.60;2.00;;;;;;;;;;5091934;28;20204;-63
2022/11/05 05:21:37;;;;;;;4.30;1.80;;;;;;;;;;5103395;28;20565;-62
2022/11/05 05:24:08;;;;;;;2.23;1.87;;;;;;;;;;5092350;28;20235;-62
2022/11/05 05:26:36;;;;;;;7.53;2.77;;;;;;;;;;5102124;28;20676;-62
2022/11/05 05:29:04;;;;;;;2.87;2.03;;;;;;;;;;5103773;28;20244;-62
2022/11/05 05:31:32;;;;;;;4.77;1.90;;;;;;;;;;5102886;28;20257;-63
2022/11/05 05:34:00;;;;;;;3.00;1.80;;;;;;;;;;5102807;28;20308;-65
2022/11/05 05:36:28;;;;;;;4.83;2.43;;;;;;;;;;5102404;28;20237;-63
2022/11/05 05:38:55;;;;;;;3.67;1.90;;;;;;;;;;5103996;28;20209;-63
2022/11/05 05:41:28;;;;;;;5.73;2.20;;;;;;;;;;5103461;28;20229;-63
2022/11/05 05:43:55;;;;;;;2.10;1.80;;;;;;;;;;5102779;28;20243;-62
2022/11/05 05:46:23;;;;;;;3.93;1.90;;;;;;;;;;5103425;28;20198;-63
2022/11/05 05:48:52;;;;;;;2.47;2.00;;;;;;;;;;5103342;28;20288;-62
2022/11/05 05:51:20;;;;;;;2.93;2.30;;;;;;;;;;5100299;28;20225;-63
2022/11/05 05:53:47;;;;;;;3.13;1.97;;;;;;;;;;5101791;28;20226;-63
2022/11/05 05:56:19;;;;;;;2.93;2.00;;;;;;;;;;5095586;28;20251;-63
2022/11/05 05:58:48;;;;;;;4.50;2.20;;;;;;;;;;5102683;28;20201;-63
2022/11/05 06:01:19;;;;;;;3.93;1.97;;;;;;;;;;5101993;28;20229;-62
2022/11/05 06:03:48;;;;;;;5.17;4.33;;;;;;;;;;5102809;28;20217;-63
2022/11/05 06:06:18;;;;;;;4.03;2.03;;;;;;;;;;5101701;28;20205;-63
2022/11/05 06:08:47;;;;;;;2.67;2.00;;;;;;;;;;5099248;28;20205;-62
2022/11/05 06:11:15;;;;;;;2.63;2.37;;;;;;;;;;5103219;28;20225;-63
2022/11/05 06:13:43;;;;;;;1.90;1.80;;;;;;;;;;5102506;28;20217;-63
2022/11/05 06:16:14;;;;;;;3.93;2.20;;;;;;;;;;5103042;28;20233;-63
2022/11/05 06:18:44;;;;;;;3.07;1.97;;;;;;;;;;5094012;28;20267;-63
2022/11/05 06:21:13;;;;;;;1.80;1.70;;;;;;;;;;5101947;28;20202;-63
2022/11/05 06:23:41;;;;;;;4.13;2.17;;;;;;;;;;5096409;28;20719;-63
2022/11/05 06:26:10;;;;;;;2.73;2.00;;;;;;;;;;5098868;28;20680;-63
2022/11/05 06:28:37;;;;;;;3.57;2.33;;;;;;;;;;5099041;28;20205;-63
2022/11/05 06:31:06;;;;;;;2.83;2.10;;;;;;;;;;5098648;28;20224;-63
2022/11/05 06:33:35;;;;;;;3.27;2.17;;;;;;;;;;5099505;28;20218;-63
2022/11/05 06:36:03;;;;;;;4.30;2.37;;;;;;;;;;5097265;28;20942;-63
2022/11/05 06:38:31;;;;;;;5.37;2.30;;;;;;;;;;5098433;28;20201;-63
2022/11/05 06:41:00;;;;;;;3.73;2.60;;;;;;;;;;5096554;28;20221;-63
2022/11/05 06:43:35;;;;;;;1.83;1.73;;;;;;;;;;5098387;28;20270;-64
2022/11/05 06:46:03;;;;;;;2.47;2.27;;;;;;;;;;5098014;28;20649;-63
2022/11/05 06:48:30;;;;;;;2.20;2.00;;;;;;;;;;5099618;28;20213;-63
2022/11/05 06:51:00;;;;;;;3.63;2.10;;;;;;;;;;5098964;28;20229;-63
2022/11/05 06:53:27;;;;;;;2.60;1.77;;;;;;;;;;5097779;28;20246;-63
2022/11/05 06:55:56;;;;;;;3.23;2.37;;;;;;;;;;5098517;28;20642;-64
2022/11/05 06:58:26;;;;;;;5.43;2.60;;;;;;;;;;5094692;28;20653;-64
2022/11/05 07:00:54;;;;;;;3.13;1.83;;;;;;;;;;5099464;28;20201;-64
2022/11/05 07:03:23;;;;;;;2.50;1.90;;;;;;;;;;5099733;28;20233;-64
2022/11/05 07:05:50;;;;;;;4.60;2.30;;;;;;;;;;5097664;28;20224;-65
2022/11/05 07:08:20;;;;;;;2.40;2.20;;;;;;;;;;5098297;28;20256;-64
2022/11/05 07:10:48;;;;;;;4.10;2.10;;;;;;;;;;5098940;28;20755;-64
2022/11/05 07:13:15;;;;;;;5.70;2.40;;;;;;;;;;5099834;28;20240;-64
2022/11/05 07:15:44;;;;;;;4.40;2.50;;;;;;;;;;5098481;28;20202;-64
2022/11/05 07:18:11;;;;;;;2.47;2.03;;;;;;;;;;5097555;28;20205;-64
2022/11/05 07:20:39;;;;;;;6.53;2.10;;;;;;;;;;5098777;28;20239;-64
2022/11/05 07:23:08;;;;;;;5.57;2.47;;;;;;;;;;5094137;28;20567;-65
2022/11/05 07:25:40;;;;;;;5.67;2.13;;;;;;;;;;5096563;28;20537;-65
2022/11/05 07:28:07;;;;;;;3.70;2.67;;;;;;;;;;5095021;28;20289;-64
2022/11/05 07:30:35;;;;;;;2.70;2.03;;;;;;;;;;5098374;28;20304;-63
2022/11/05 07:33:03;;;;;;;3.53;2.33;;;;;;;;;;5099175;28;20240;-64
2022/11/05 07:35:31;;;;;;;6.07;2.53;;;;;;;;;;5099143;28;20244;-64
2022/11/05 07:37:59;;;;;;;3.40;2.30;;;;;;;;;;5099357;28;20235;-64
2022/11/05 07:40:27;;;;;;;3.30;2.17;;;;;;;;;;5098977;28;20292;-64
2022/11/05 07:42:57;;;;;;;4.03;2.43;;;;;;;;;;5098781;28;20210;-64
2022/11/05 07:45:26;;;;;;;3.33;2.37;;;;;;;;;;5099138;28;20648;-64
2022/11/05 07:47:54;;;;;;;6.53;2.17;;;;;;;;;;5097738;28;20197;-64
2022/11/05 07:50:23;;;;;;;2.80;2.33;;;;;;;;;;5098299;28;20588;-64
2022/11/05 07:52:54;;;;;;;3.80;2.77;;;;;;;;;;5098404;28;20232;-64
2022/11/05 07:55:21;;;;;;;3.70;2.90;;;;;;;;;;5097621;28;20366;-64
2022/11/05 07:57:50;;;;;;;4.17;2.20;;;;;;;;;;5098430;28;20272;-64
2022/11/05 08:00:20;;;;;;;6.50;3.43;;;;;;;;;;5098860;28;20316;-64
2022/11/05 08:02:56;;;;;;;3.67;2.50;;;;;;;;;;5098720;28;20209;-64
2022/11/05 08:05:35;;;;;;;4.73;2.77;;;;;;;;;;5097574;28;20201;-63
2022/11/05 08:08:03;;;;;;;2.63;2.43;;;;;;;;;;5097410;28;20206;-64
2022/11/05 08:10:31;;;;;;;2.73;2.07;;;;;;;;;;5098739;28;20564;-64
2022/11/05 08:12:59;;;;;;;8.33;2.70;;;;;;;;;;5098138;28;20267;-64
2022/11/05 08:15:28;;;;;;;3.10;2.30;;;;;;;;;;5097525;28;20227;-64
2022/11/05 08:17:59;;;;;;;5.17;2.60;;;;;;;;;;5095488;28;20237;-64
2022/11/05 08:20:26;;;;;;;2.63;2.20;;;;;;;;;;5095936;28;20254;-64
2022/11/05 08:22:56;;;;;;;2.30;2.10;;;;;;;;;;5096345;28;20226;-64
2022/11/05 08:25:24;;;;;;;4.27;2.43;;;;;;;;;;5096616;28;20306;-64
2022/11/05 08:27:57;;;;;;;7.77;2.43;;;;;;;;;;5097882;28;20233;-64
2022/11/05 08:30:25;;;;;;;3.07;2.40;;;;;;;;;;5097130;28;20237;-64
2022/11/05 08:32:57;;;;;;;3.53;1.97;;;;;;;;;;5098093;28;20260;-64
2022/11/05 08:35:25;;;;;;;4.70;2.43;;;;;;;;;;5097625;28;20288;-64
2022/11/05 08:37:56;;;;;;;3.23;1.90;;;;;;;;;;5096905;28;20225;-64
2022/11/05 08:40:25;;;;;;;4.20;2.47;;;;;;;;;;5097760;28;20732;-64
2022/11/05 08:42:53;;;;;;;2.60;2.33;;;;;;;;;;5095841;28;20246;-63
2022/11/05 08:45:20;;;;;;;4.07;1.73;;;;;;;;;;5096565;28;20594;-64
2022/11/05 08:47:48;;;;;;;3.40;1.70;;;;;;;;;;5097994;28;20241;-64
2022/11/05 08:50:17;;;;;;;3.97;1.90;;;;;;;;;;5097519;28;20274;-64
2022/11/05 08:52:45;;;;;;;2.97;1.60;;;;;;;;;;5097603;28;20313;-64
2022/11/05 08:55:13;;;;;;;3.70;1.90;;;;;;;;;;5097741;28;20233;-64
2022/11/05 08:57:40;;;;;;;2.37;1.63;;;;;;;;;;5097939;28;20275;-64
2022/11/05 09:00:09;;;;;;;3.10;1.50;;;;;;;;;;5097825;28;20657;-64
2022/11/05 09:02:36;;;;;;;2.00;1.50;;;;;;;;;;5098032;28;20311;-64
2022/11/05 09:05:04;;;;;;;3.50;1.50;;;;;;;;;;5097323;28;20426;-64
2022/11/05 09:07:33;;;;;;;3.23;1.70;;;;;;;;;;5097597;28;20577;-64
2022/11/05 09:10:01;;;;;;;4.83;1.63;;;;;;;;;;5097547;28;20209;-64
2022/11/05 09:12:29;;;;;;;5.93;1.80;;;;;;;;;;5097672;28;20637;-64
2022/11/05 09:14:56;;;;;;;2.90;1.80;;;;;;;;;;5097070;28;20261;-65
2022/11/05 09:17:24;;;;;;;3.33;1.90;;;;;;;;;;5087798;28;20233;-64
2022/11/05 09:19:52;;;;;;;4.27;1.80;;;;;;;;;;5095288;28;20241;-64
2022/11/05 09:22:20;;;;;;;6.63;1.67;;;;;;;;;;5097812;28;20259;-64
2022/11/05 09:24:49;;;;;;;2.00;1.80;;;;;;;;;;5097336;28;20733;-64
2022/11/05 09:27:17;;;;;;;16.17;6.93;;;;;;;;;;5097589;28;20209;-64
2022/11/05 09:29:44;;;;;;;5.60;2.00;;;;;;;;;;5097714;28;20679;-64
2022/11/05 09:32:14;;;;;;;2.67;1.70;;;;;;;;;;5097685;28;20401;-64
2022/11/05 09:34:43;;;;;;;3.30;1.70;;;;;;;;;;5097310;28;20252;-64
2022/11/05 09:37:11;;;;;;;4.60;2.57;;;;;;;;;;5096794;28;20240;-64
2022/11/05 09:39:39;;;;;;;8.63;2.03;;;;;;;;;;5096218;28;20236;-64
2022/11/05 09:42:09;;;;;;;2.63;1.60;;;;;;;;;;5096001;28;20228;-64
2022/11/05 09:44:40;;;;;;;3.50;2.00;;;;;;;;;;5096554;28;20646;-64
2022/11/05 09:47:11;;;;;;;3.13;1.90;;;;;;;;;;5097414;28;20237;-65
2022/11/05 09:49:41;;;;;;;4.40;2.03;;;;;;;;;;5097055;28;20206;-64
2022/11/05 09:52:12;;;;;;;4.67;2.03;;;;;;;;;;5097147;28;20217;-64
2022/11/05 09:54:39;;;;;;;3.07;1.77;;;;;;;;;;5097365;28;20317;-64
2022/11/05 09:57:14;;;;;;;3.80;1.70;;;;;;;;;;5098097;28;20265;-64
2022/11/05 09:59:43;;;;;;;2.03;1.50;;;;;;;;;;5101354;28;20236;-65
2022/11/05 10:02:12;;;;;;;4.13;1.80;;;;;;;;;;5101145;28;20212;-64
2022/11/05 10:04:43;;;;;;;6.87;2.50;;;;;;;;;;5100974;28;20231;-64
2022/11/05 10:07:13;;;;;;;3.60;1.77;;;;;;;;;;5101134;28;20244;-64
2022/11/05 10:09:44;;;;;;;2.20;2.00;;;;;;;;;;5099470;28;20281;-64
2022/11/05 10:12:16;;;;;;;4.83;1.90;;;;;;;;;;5100987;28;20221;-64
2022/11/05 10:14:45;;;;;;;3.13;1.43;;;;;;;;;;5100572;28;20313;-64
2022/11/05 10:17:15;;;;;;;4.33;1.80;;;;;;;;;;5092255;28;20632;-65
2022/11/05 10:19:44;;;;;;;1.57;1.20;;;;;;;;;;5097271;28;20296;-64
2022/11/05 10:22:15;;;;;;;4.23;1.67;;;;;;;;;;5100641;28;20277;-64
2022/11/05 10:24:43;;;;;;;4.70;1.67;;;;;;;;;;5100342;28;20265;-64
2022/11/05 10:27:15;;;;;;;2.20;1.17;;;;;;;;;;5100597;28;20209;-64
2022/11/05 10:29:43;;;;;;;3.00;1.30;;;;;;;;;;5100445;28;20241;-64
2022/11/05 10:32:14;;;;;;;14.60;6.63;;;;;;;;;;5100554;28;20260;-64
2022/11/05 10:34:42;;;;;;;7.50;3.90;;;;;;;;;;5098996;28;20292;-64
2022/11/05 10:37:10;;;;;;;5.77;2.60;;;;;;;;;;5100640;28;20233;-64
2022/11/05 10:39:38;;;;;;;5.47;1.47;;;;;;;;;;5100065;28;20264;-64
2022/11/05 10:42:16;;;;;;;3.03;1.20;;;;;;;;;;5100182;28;20728;-64
2022/11/05 10:44:49;;;;;;;2.10;1.60;;;;;;;;;;5100042;28;20233;-64
2022/11/05 10:47:29;;;;;;;2.33;1.73;;;;;;;;;;5100286;28;20641;-64
2022/11/05 10:49:58;;;;;;;2.73;1.97;;;;;;;;;;5100027;28;20240;-64
2022/11/05 10:52:30;;;;;;;4.37;1.37;;;;;;;;;;5099767;28;20274;-65
2022/11/05 10:54:59;;;;;;;4.93;1.70;;;;;;;;;;5100139;28;20257;-64
2022/11/05 10:57:28;;;;;;;6.43;1.70;;;;;;;;;;5099729;28;20233;-64
2022/11/05 11:00:20;;;;;;;2.00;1.47;;;;;;;;;;5099988;28;20198;-64
2022/11/05 11:02:49;;;;;;;3.57;1.40;;;;;;;;;;5099984;28;20323;-64
2022/11/05 11:05:21;;;;;;;6.10;1.50;;;;;;;;;;5098618;28;20296;-64
2022/11/05 11:08:00;;;;;;;5.37;1.70;;;;;;;;;;5099237;28;20240;-64
2022/11/05 11:10:30;;;;;;;2.80;1.20;;;;;;;;;;5099584;28;20636;-64
2022/11/05 11:12:58;;;;;;;3.27;1.70;;;;;;;;;;5099708;28;20289;-64
2022/11/05 11:15:28;;;;;;;3.23;1.30;;;;;;;;;;5098186;28;20542;-64
2022/11/05 11:17:56;;;;;;;2.80;1.20;;;;;;;;;;5087712;28;20229;-64
2022/11/05 11:20:25;;;;;;;1.50;1.40;;;;;;;;;;5099259;28;20311;-64
2022/11/05 11:22:59;;;;;;;5.60;1.80;;;;;;;;;;5099158;28;20216;-65
2022/11/05 11:25:27;;;;;;;1.57;1.23;;;;;;;;;;5099682;28;20237;-64
2022/11/05 11:27:55;;;;;;;7.27;1.37;;;;;;;;;;5099525;28;20704;-64
2022/11/05 11:30:26;;;;;;;4.50;1.23;;;;;;;;;;5099328;28;20206;-64
2022/11/05 11:32:57;;;;;;;4.57;1.37;;;;;;;;;;5099349;28;20241;-64
2022/11/05 11:35:25;;;;;;;4.27;1.30;;;;;;;;;;5099036;28;20209;-64
2022/11/05 11:37:53;;;;;;;2.80;1.07;;;;;;;;;;5099277;28;20677;-64
2022/11/05 11:40:22;;;;;;;4.50;1.40;;;;;;;;;;5099328;28;20206;-63
2022/11/05 11:42:52;;;;;;;2.93;1.70;;;;;;;;;;5099265;28;20233;-64
2022/11/05 11:45:23;;;;;;;5.00;1.90;;;;;;;;;;5096645;28;20305;-64
2022/11/05 11:47:51;;;;;;;2.87;1.30;;;;;;;;;;5099148;28;20237;-64
2022/11/05 11:50:37;;;;;;;1.37;1.27;;;;;;;;;;5098679;28;20237;-64
2022/11/05 11:53:24;;;;;;;2.20;1.37;;;;;;;;;;5098989;28;20253;-64
2022/11/05 11:56:07;;;;;;;1.47;1.03;;;;;;;;;;5098865;28;20237;-64
2022/11/05 11:58:39;;;;;;;2.90;2.33;;;;;;;;;;5096417;28;20252;-64
2022/11/05 12:01:14;;;;;;;5.10;1.63;;;;;;;;;;5098811;28;20293;-64
2022/11/05 12:03:45;;;;;;;2.30;1.27;;;;;;;;;;5097177;28;20311;-64
2022/11/05 12:06:16;;;;;;;3.13;1.40;;;;;;;;;;5098677;28;20233;-64
2022/11/05 12:08:49;;;;;;;4.50;1.57;;;;;;;;;;5098309;28;20292;-64
2022/11/05 12:11:30;;;;;;;2.47;1.40;;;;;;;;;;5098370;28;20246;-64
2022/11/05 12:14:08;;;;;;;4.13;1.50;;;;;;;;;;5098361;28;20233;-64
2022/11/05 12:16:52;;;;;;;6.27;1.70;;;;;;;;;;5095322;28;20236;-64
2022/11/05 12:19:25;;;;;;;1.67;1.13;;;;;;;;;;5090420;28;20247;-64
2022/11/05 12:21:56;;;;;;;2.37;1.17;;;;;;;;;;5098172;28;20202;-65
2022/11/05 12:24:38;;;;;;;2.57;1.43;;;;;;;;;;5097557;28;20241;-65
2022/11/05 12:27:14;;;;;;;4.60;1.73;;;;;;;;;;5092384;28;20240;-64
2022/11/05 12:29:46;;;;;;;3.80;1.30;;;;;;;;;;5098110;28;20232;-65
2022/11/05 12:32:28;;;;;;;2.10;1.53;;;;;;;;;;5096761;28;20610;-64
2022/11/05 12:34:59;;;;;;;3.17;1.30;;;;;;;;;;5094387;28;20229;-64
2022/11/05 12:37:30;;;;;;;5.63;1.70;;;;;;;;;;5097604;28;20232;-65
2022/11/05 12:40:14;;;;;;;1.83;1.30;;;;;;;;;;5097969;28;20263;-66
2022/11/05 12:42:52;;;;;;;2.17;1.00;;;;;;;;;;5097916;28;20208;-67
2022/11/05 12:45:29;;;;;;;4.63;1.33;;;;;;;;;;5098008;28;20247;-65
2022/11/05 12:48:05;;;;;;;7.63;4.57;;;;;;;;;;5097403;28;20197;-65
2022/11/05 12:50:36;;;;;;;2.20;1.10;;;;;;;;;;5094012;28;20197;-64
2022/11/05 12:53:13;;;;;;;6.53;1.60;;;;;;;;;;5095994;28;20284;-65
2022/11/05 12:55:42;;;;;;;4.23;1.10;;;;;;;;;;5095556;28;20201;-65
2022/11/05 12:58:20;;;;;;;2.93;1.57;;;;;;;;;;5093984;28;20202;-64
2022/11/05 13:00:51;;;;;;;9.73;1.73;;;;;;;;;;5095843;28;20361;-65
2022/11/05 13:03:26;;;;;;;2.87;1.53;;;;;;;;;;5092196;28;20198;-65
2022/11/05 13:05:55;;;;;;;3.93;1.17;;;;;;;;;;5095687;28;20215;-64
2022/11/05 13:08:33;;;;;;;3.50;1.67;;;;;;;;;;5095861;28;20625;-64
2022/11/05 13:11:10;;;;;;;6.77;1.93;;;;;;;;;;5094184;28;20234;-64
2022/11/05 13:13:40;;;;;;;1.80;1.20;;;;;;;;;;5095722;28;20260;-64
2022/11/05 13:16:11;;;;;;;1.40;1.17;;;;;;;;;;5096415;28;20669;-65
2022/11/05 13:18:42;;;;;;;2.40;1.50;;;;;;;;;;5093938;28;20233;-64
2022/11/05 13:21:10;;;;;;;3.43;2.10;;;;;;;;;;5096218;28;20237;-64
2022/11/05 13:23:41;;;;;;;3.40;2.40;;;;;;;;;;5092134;28;20290;-64
2022/11/05 13:26:13;;;;;;;3.33;1.40;;;;;;;;;;5097592;28;20611;-64
2022/11/05 13:28:51;;;;;;;5.60;2.30;;;;;;;;;;5097400;28;20288;-64
2022/11/05 13:31:20;;;;;;;4.83;1.83;;;;;;;;;;5098841;28;20696;-64
2022/11/05 13:33:49;;;;;;;3.10;1.50;;;;;;;;;;5101264;28;20278;-63
2022/11/05 13:39:08;;;;;;;2.03;1.30;;;;;;;;;;5101044;28;20244;-64
2022/11/05 13:41:45;;;;;;;3.27;1.50;;;;;;;;;;5101399;28;20276;-64
2022/11/05 13:44:22;;;;;;;4.77;1.67;;;;;;;;;;5101266;28;20269;-64
2022/11/05 13:47:02;;;;;;;3.20;1.30;;;;;;;;;;5101492;28;20278;-64
2022/11/05 13:49:42;;;;;;;2.53;1.20;;;;;;;;;;5100975;28;20288;-64
2022/11/05 13:52:21;;;;;;;2.47;1.53;;;;;;;;;;5100826;28;20669;-64
2022/11/05 13:55:10;;;;;;;2.40;1.17;;;;;;;;;;5097174;28;20221;-65
2022/11/05 13:57:57;;;;;;;1.27;1.07;;;;;;;;;;5099308;28;20308;-65
2022/11/05 14:00:27;;;;;;;3.40;1.23;;;;;;;;;;5098651;28;20232;-65
2022/11/05 14:02:56;;;;;;;5.17;1.00;;;;;;;;;;5100784;28;20671;-63
2022/11/05 14:05:27;;;;;;;1.53;1.23;;;;;;;;;;5100725;28;20225;-64
2022/11/05 14:07:55;;;;;;;3.53;1.30;;;;;;;;;;5101110;28;20217;-64
2022/11/05 14:10:30;;;;;;;2.17;1.40;;;;;;;;;;5100956;28;20232;-64
2022/11/05 14:12:59;;;;;;;177.37;88.90;;;;;;;;;;5100986;28;20571;-60
2022/11/05 14:15:29;;;;;;;1687.07;903.07;;;;;;;;;;5100853;28;20272;-65
2022/11/05 14:17:58;;;;;;;112.03;65.30;;;;;;;;;;5100758;28;20663;-65
2022/11/05 14:20:42;;;;;;;10.97;7.40;;;;;;;;;;5100518;28;20212;-65
2022/11/05 14:23:43;;;;;;;3.23;1.87;;;;;;;;;;5100059;28;20236;-65
2022/11/05 14:26:19;;;;;;;2.77;1.30;;;;;;;;;;5036898;28;20246;-65
2022/11/05 14:28:48;;;;;;;2.20;1.30;;;;;;;;;;5038028;28;20238;-65
2022/11/05 14:31:29;;;;;;;2.57;1.77;;;;;;;;;;5070002;28;20264;-65
2022/11/05 14:34:18;;;;;;;1.37;1.27;;;;;;;;;;5099640;28;20243;-65
2022/11/05 14:37:01;;;;;;;1.97;1.60;;;;;;;;;;5100056;28;20205;-65
2022/11/05 14:39:30;;;;;;;2.73;1.23;;;;;;;;;;5086313;28;20237;-65
2022/11/05 14:42:00;;;;;;;2.40;1.37;;;;;;;;;;5100125;28;20217;-65
2022/11/05 14:44:28;;;;;;;1.33;1.00;;;;;;;;;;5099253;28;20253;-65
2022/11/05 14:46:59;;;;;;;2.33;1.20;;;;;;;;;;5100383;28;20209;-65
2022/11/05 14:49:28;;;;;;;4.03;1.17;;;;;;;;;;5099992;28;20616;-65
2022/11/05 14:51:57;;;;;;;2.20;1.07;;;;;;;;;;5100127;28;20233;-65
2022/11/05 14:54:26;;;;;;;4.33;1.30;;;;;;;;;;5098835;28;20253;-66
2022/11/05 14:56:56;;;;;;;1.77;1.67;;;;;;;;;;5099938;28;20273;-65
2022/11/05 14:59:34;;;;;;;2.43;1.10;;;;;;;;;;5100159;28;20644;-65
2022/11/05 15:02:03;;;;;;;9.00;2.80;;;;;;;;;;5099709;28;20245;-66
2022/11/05 15:04:32;;;;;;;2.37;1.50;;;;;;;;;;5099325;28;20258;-65
2022/11/05 15:07:14;;;;;;;2.27;1.30;;;;;;;;;;5099903;28;20229;-65
2022/11/05 15:09:43;;;;;;;1.23;0.93;;;;;;;;;;5099802;28;20721;-66
2022/11/05 15:12:14;;;;;;;3.43;1.03;;;;;;;;;;5099954;28;20243;-65
2022/11/05 15:14:48;;;;;;;2.90;1.20;;;;;;;;;;5099696;28;20225;-65
2022/11/05 15:17:22;;;;;;;2.90;0.90;;;;;;;;;;5099798;28;20205;-65
2022/11/05 15:19:51;;;;;;;1.83;0.90;;;;;;;;;;5099304;28;20201;-66
2022/11/05 15:22:25;;;;;;;3.77;1.00;;;;;;;;;;5099552;28;20231;-66
2022/11/05 15:24:53;;;;;;;2.60;1.03;;;;;;;;;;5098455;28;20651;-66
2022/11/05 15:27:27;;;;;;;1.53;0.97;;;;;;;;;;5099573;28;20205;-65
2022/11/05 15:29:55;;;;;;;4.03;1.30;;;;;;;;;;5099398;28;20208;-66
2022/11/05 15:32:25;;;;;;;2.87;1.60;;;;;;;;;;5096564;28;20657;-65
2022/11/05 15:34:53;;;;;;;3.47;1.30;;;;;;;;;;5098648;28;20255;-66
2022/11/05 15:37:22;;;;;;;2.33;1.00;;;;;;;;;;5098966;28;20205;-67
2022/11/05 15:39:53;;;;;;;2.73;1.20;;;;;;;;;;5099106;28;20202;-67
2022/11/05 15:42:22;;;;;;;1.73;1.30;;;;;;;;;;5098202;28;20193;-67
2022/11/05 15:44:51;;;;;;;1.13;1.00;;;;;;;;;;5096029;28;20244;-66
2022/11/05 15:47:20;;;;;;;3.37;1.47;;;;;;;;;;5098498;28;20288;-67